Time;durP1;ratioP1;P1;durP2;ratioP2;P2;SDS_P1;SDS_P2;PMS_P1;PMS_P2;Temp;Humidity;BMP_temperature;BMP_pressure;BME280_temperature;BME280_humidity;BME280_pressure;Samples;Min_cycle;Max_cycle;Signal;HPM_P1;HPM_P2
2021/07/06 00:00:07;;;;;;;11.23;3.00;;;20.50;84.90;;;;;;5061906;28;20548;-44
2021/07/06 00:02:34;;;;;;;4.97;2.60;;;20.40;84.80;;;;;;5064985;28;20467;-44
2021/07/06 00:05:01;;;;;;;2.77;2.47;;;20.40;84.80;;;;;;5063890;28;20454;-44
2021/07/06 00:07:28;;;;;;;3.80;2.50;;;20.40;84.80;;;;;;5092260;27;20462;-44
2021/07/06 00:09:56;;;;;;;3.23;2.50;;;20.40;84.90;;;;;;5061675;28;20455;-44
2021/07/06 00:12:23;;;;;;;3.80;2.70;;;20.40;84.90;;;;;;5062146;28;20806;-44
2021/07/06 00:14:50;;;;;;;2.80;2.40;;;20.30;84.90;;;;;;5064001;28;20513;-44
2021/07/06 00:17:19;;;;;;;4.87;2.40;;;20.30;84.90;;;;;;5064842;28;20477;-44
2021/07/06 00:19:47;;;;;;;2.63;2.43;;;20.30;84.90;;;;;;5059837;28;20524;-46
2021/07/06 00:22:14;;;;;;;4.13;2.40;;;20.20;85.00;;;;;;5062018;28;20457;-46
2021/07/06 00:24:41;;;;;;;5.70;2.80;;;20.20;85.10;;;;;;5062885;28;21028;-46
2021/07/06 00:27:08;;;;;;;3.40;2.50;;;20.20;85.20;;;;;;5061051;28;20473;-46
2021/07/06 00:29:35;;;;;;;2.70;2.50;;;20.20;85.10;;;;;;5062530;28;20462;-46
2021/07/06 00:32:02;;;;;;;3.90;3.60;;;20.10;85.10;;;;;;5061276;28;20517;-46
2021/07/06 00:34:29;;;;;;;4.20;3.23;;;20.10;85.10;;;;;;5064668;28;20862;-46
2021/07/06 00:36:56;;;;;;;5.87;3.00;;;20.10;85.20;;;;;;5061197;28;20445;-46
2021/07/06 00:39:22;;;;;;;2.37;2.17;;;20.00;85.40;;;;;;5090270;28;21067;-44
2021/07/06 00:41:50;;;;;;;4.00;3.00;;;20.00;85.50;;;;;;5090311;28;20973;-44
2021/07/06 00:44:19;;;;;;;3.77;3.07;;;19.90;85.60;;;;;;5059205;28;20451;-44
2021/07/06 00:46:47;;;;;;;3.80;3.10;;;19.90;85.70;;;;;;5068908;28;20513;-44
2021/07/06 00:49:14;;;;;;;3.90;2.90;;;19.90;85.70;;;;;;5061670;28;20468;-44
2021/07/06 00:51:41;;;;;;;2.83;2.63;;;19.90;85.70;;;;;;5064229;28;20477;-44
2021/07/06 00:54:08;;;;;;;4.40;3.53;;;19.80;85.70;;;;;;5060311;28;20464;-44
2021/07/06 00:56:35;;;;;;;4.47;2.90;;;19.80;85.70;;;;;;5063621;28;20462;-44
2021/07/06 00:59:02;;;;;;;4.83;3.27;;;19.80;85.80;;;;;;5057765;28;20558;-44
2021/07/06 01:01:30;;;;;;;4.40;4.00;;;19.70;85.80;;;;;;5076052;28;20456;-44
2021/07/06 01:03:57;;;;;;;5.80;3.30;;;19.70;85.80;;;;;;5063329;28;20756;-44
2021/07/06 01:06:23;;;;;;;3.50;3.20;;;19.70;85.80;;;;;;5058751;28;20466;-44
2021/07/06 01:08:52;;;;;;;2.90;2.70;;;19.70;85.80;;;;;;5061060;28;20466;-44
2021/07/06 01:11:20;;;;;;;2.80;2.50;;;19.70;85.70;;;;;;5057645;28;20458;-44
2021/07/06 01:13:48;;;;;;;3.47;2.77;;;19.60;85.70;;;;;;5056588;28;20476;-44
2021/07/06 01:16:15;;;;;;;3.37;3.00;;;19.60;85.70;;;;;;5057564;28;20553;-44
2021/07/06 01:18:42;;;;;;;3.33;3.00;;;19.60;85.70;;;;;;5086077;28;20526;-43
2021/07/06 01:21:09;;;;;;;5.47;2.90;;;19.60;85.70;;;;;;5064244;28;20453;-44
2021/07/06 01:23:36;;;;;;;7.20;2.87;;;19.60;85.70;;;;;;5061940;28;20929;-44
2021/07/06 01:26:05;;;;;;;3.90;2.60;;;19.50;85.50;;;;;;5060714;28;20481;-44
2021/07/06 01:28:33;;;;;;;3.17;2.80;;;19.50;85.50;;;;;;5060785;28;20484;-44
2021/07/06 01:31:00;;;;;;;3.07;2.77;;;19.50;85.70;;;;;;5059931;28;20541;-44
2021/07/06 01:33:30;;;;;;;3.43;2.77;;;19.40;85.70;;;;;;5058092;28;20453;-44
2021/07/06 01:36:02;;;;;;;5.70;2.83;;;19.40;85.70;;;;;;5059084;28;20485;-45
2021/07/06 01:38:29;;;;;;;4.23;3.03;;;19.40;85.70;;;;;;5059981;28;20525;-44
2021/07/06 01:40:55;;;;;;;6.33;2.93;;;19.40;85.80;;;;;;5063964;28;20443;-44
2021/07/06 01:43:23;;;;;;;3.50;3.20;;;19.40;85.90;;;;;;5060606;28;20533;-44
2021/07/06 01:45:49;;;;;;;4.40;3.03;;;19.30;85.90;;;;;;5056044;28;20541;-44
2021/07/06 01:48:16;;;;;;;4.57;2.90;;;19.30;85.80;;;;;;5057235;28;20462;-44
2021/07/06 01:50:46;;;;;;;4.60;2.97;;;19.30;85.90;;;;;;5059915;28;20461;-44
2021/07/06 01:53:21;;;;;;;3.20;2.80;;;19.20;85.80;;;;;;5063505;28;20465;-44
2021/07/06 01:55:50;;;;;;;8.23;3.23;;;19.20;85.60;;;;;;5059668;28;20500;-44
2021/07/06 01:58:19;;;;;;;7.90;3.03;;;19.20;85.60;;;;;;5058102;28;20864;-44
2021/07/06 02:00:58;;;;;;;6.80;3.10;;;19.20;85.60;;;;;;5088982;28;20454;-44
2021/07/06 02:03:25;;;;;;;8.30;3.50;;;19.10;85.60;;;;;;5060538;28;20902;-43
2021/07/06 02:05:58;;;;;;;6.53;3.23;;;19.10;85.60;;;;;;5061571;28;20457;-44
2021/07/06 02:08:25;;;;;;;4.80;3.27;;;19.10;85.70;;;;;;5059489;28;20537;-44
2021/07/06 02:10:55;;;;;;;4.57;4.03;;;19.10;85.60;;;;;;5060845;28;20795;-44
2021/07/06 02:13:24;;;;;;;7.80;2.80;;;19.00;85.60;;;;;;5061623;28;20977;-44
2021/07/06 02:15:53;;;;;;;3.50;3.20;;;19.00;85.60;;;;;;5060812;28;20903;-44
2021/07/06 02:18:21;;;;;;;7.10;3.03;;;19.00;85.60;;;;;;5059973;28;20492;-43
2021/07/06 02:20:53;;;;;;;2.87;2.67;;;19.00;85.60;;;;;;5056747;28;20538;-44
2021/07/06 02:23:20;;;;;;;5.73;3.00;;;18.90;85.70;;;;;;5059318;28;20541;-46
2021/07/06 02:25:48;;;;;;;5.23;2.97;;;18.90;85.70;;;;;;5060524;28;20454;-46
2021/07/06 02:28:15;;;;;;;4.63;3.37;;;18.90;85.90;;;;;;5059278;28;20463;-46
2021/07/06 02:30:42;;;;;;;3.30;2.60;;;18.90;85.90;;;;;;5061713;28;20457;-46
2021/07/06 02:33:09;;;;;;;3.27;2.97;;;18.80;86.00;;;;;;5060837;28;20469;-46
2021/07/06 02:35:36;;;;;;;3.93;3.57;;;18.80;86.10;;;;;;5057326;28;20495;-46
2021/07/06 02:38:03;;;;;;;4.57;3.37;;;18.80;86.20;;;;;;5059317;28;20504;-46
2021/07/06 02:40:30;;;;;;;3.70;2.90;;;18.90;86.10;;;;;;5058448;28;20959;-46
2021/07/06 02:42:58;;;;;;;3.30;3.00;;;18.90;85.70;;;;;;5056045;28;20465;-46
2021/07/06 02:45:26;;;;;;;10.07;3.00;;;18.90;85.30;;;;;;5059272;28;20462;-46
2021/07/06 02:47:53;;;;;;;6.50;3.17;;;18.90;85.40;;;;;;5060281;28;20466;-46
2021/07/06 02:50:24;;;;;;;4.17;2.60;;;18.80;85.40;;;;;;5057362;28;20464;-46
2021/07/06 02:52:51;;;;;;;4.17;2.80;;;18.80;85.30;;;;;;5061662;28;20465;-46
2021/07/06 02:55:18;;;;;;;4.77;2.97;;;18.80;85.10;;;;;;5066571;28;20488;-46
2021/07/06 02:57:46;;;;;;;4.77;2.83;;;18.70;85.10;;;;;;5058409;28;20459;-45
2021/07/06 03:00:22;;;;;;;6.20;2.83;;;18.70;85.20;;;;;;5059885;28;20454;-45
2021/07/06 03:02:54;;;;;;;3.17;2.87;;;18.70;85.10;;;;;;5059432;28;20466;-45
2021/07/06 03:05:23;;;;;;;7.23;2.50;;;18.60;85.10;;;;;;5063601;28;20541;-45
2021/07/06 03:07:51;;;;;;;4.83;2.70;;;18.60;85.00;;;;;;5057602;28;20450;-45
2021/07/06 03:10:21;;;;;;;4.73;2.97;;;18.60;85.00;;;;;;5062913;28;20437;-45
2021/07/06 03:12:49;;;;;;;3.40;3.10;;;18.50;85.00;;;;;;5059680;28;21223;-45
2021/07/06 03:15:18;;;;;;;6.30;2.97;;;18.50;85.10;;;;;;5061606;28;21081;-45
2021/07/06 03:17:45;;;;;;;3.17;2.63;;;18.40;85.30;;;;;;5063327;28;20504;-45
2021/07/06 03:20:16;;;;;;;3.80;3.33;;;18.40;85.40;;;;;;5061901;28;20571;-45
2021/07/06 03:22:43;;;;;;;5.03;3.17;;;18.40;85.40;;;;;;5092503;28;20903;-45
2021/07/06 03:25:12;;;;;;;5.27;2.60;;;18.40;85.40;;;;;;5067973;28;20465;-45
2021/07/06 03:27:40;;;;;;;4.60;2.80;;;18.40;85.50;;;;;;5065489;28;20469;-45
2021/07/06 03:30:13;;;;;;;7.40;3.10;;;18.40;85.50;;;;;;5063101;28;20509;-46
2021/07/06 03:32:40;;;;;;;3.80;3.20;;;18.30;85.50;;;;;;5087994;27;20455;-46
2021/07/06 03:35:08;;;;;;;3.67;2.77;;;18.30;85.50;;;;;;5061300;28;20561;-45
2021/07/06 03:37:35;;;;;;;3.77;2.37;;;18.30;85.50;;;;;;5060176;28;20465;-45
2021/07/06 03:40:04;;;;;;;5.47;3.17;;;18.30;85.40;;;;;;5069459;28;20446;-45
2021/07/06 03:42:31;;;;;;;5.33;3.10;;;18.20;85.50;;;;;;5093445;28;20477;-45
2021/07/06 03:44:58;;;;;;;5.23;3.00;;;18.20;85.50;;;;;;5061557;28;20455;-45
2021/07/06 03:47:24;;;;;;;4.30;2.73;;;18.20;85.50;;;;;;5064262;28;20445;-45
2021/07/06 03:49:51;;;;;;;3.67;2.77;;;18.20;85.50;;;;;;5065278;28;20462;-45
2021/07/06 03:52:18;;;;;;;4.20;3.10;;;18.20;85.50;;;;;;5091248;28;20439;-45
2021/07/06 03:54:49;;;;;;;5.27;3.30;;;18.30;85.50;;;;;;5063211;28;20541;-45
2021/07/06 03:57:28;;;;;;;3.70;3.30;;;18.20;85.60;;;;;;5062720;28;20490;-45
2021/07/06 04:00:16;;;;;;;3.47;3.17;;;18.30;85.70;;;;;;5074740;28;20460;-45
2021/07/06 04:02:43;;;;;;;3.20;2.67;;;18.30;85.70;;;;;;5058762;28;20843;-45
2021/07/06 04:05:11;;;;;;;3.97;2.60;;;18.20;85.80;;;;;;5065034;28;20458;-46
2021/07/06 04:07:39;;;;;;;3.40;2.90;;;18.20;85.80;;;;;;5063621;28;20465;-46
2021/07/06 04:10:09;;;;;;;3.83;3.00;;;18.20;85.90;;;;;;5063061;28;20477;-46
2021/07/06 04:12:36;;;;;;;4.73;3.67;;;18.20;85.90;;;;;;5057136;28;20901;-46
2021/07/06 04:15:06;;;;;;;4.53;4.07;;;18.30;86.00;;;;;;5069158;28;20478;-46
2021/07/06 04:17:33;;;;;;;6.77;3.87;;;18.30;85.90;;;;;;5063106;28;20459;-45
2021/07/06 04:19:59;;;;;;;5.77;3.47;;;18.30;85.70;;;;;;5087407;27;20843;-45
2021/07/06 04:22:26;;;;;;;7.13;2.53;;;18.30;85.30;;;;;;5059391;28;20459;-45
2021/07/06 04:24:53;;;;;;;6.87;2.83;;;18.30;85.10;;;;;;5065175;28;20826;-45
2021/07/06 04:27:20;;;;;;;5.13;3.20;;;18.30;84.90;;;;;;5060322;28;20798;-45
2021/07/06 04:29:48;;;;;;;6.13;3.17;;;18.30;84.90;;;;;;5059885;28;20471;-45
2021/07/06 04:32:16;;;;;;;5.70;3.20;;;18.20;85.10;;;;;;5061135;28;20445;-45
2021/07/06 04:34:44;;;;;;;6.00;3.33;;;18.30;85.00;;;;;;5060641;28;20549;-45
2021/07/06 04:37:14;;;;;;;4.77;3.63;;;18.30;85.00;;;;;;5058172;28;20489;-45
2021/07/06 04:39:41;;;;;;;7.43;3.67;;;18.30;85.10;;;;;;5061188;28;20459;-45
2021/07/06 04:42:12;;;;;;;7.00;4.10;;;18.30;85.20;;;;;;5058060;28;20454;-45
2021/07/06 04:44:39;;;;;;;10.13;4.27;;;18.40;85.40;;;;;;5060382;28;20450;-45
2021/07/06 04:47:06;;;;;;;4.67;3.47;;;18.40;85.60;;;;;;5063346;28;20460;-45
2021/07/06 04:49:33;;;;;;;4.60;2.83;;;18.40;85.90;;;;;;5065415;28;20457;-45
2021/07/06 04:52:05;;;;;;;6.87;3.33;;;18.40;86.10;;;;;;5060538;28;20469;-45
2021/07/06 04:54:32;;;;;;;7.50;4.03;;;18.40;86.20;;;;;;5056513;28;20463;-45
2021/07/06 04:56:59;;;;;;;4.70;3.87;;;18.40;86.40;;;;;;5060238;28;20496;-45
2021/07/06 04:59:26;;;;;;;4.97;3.67;;;18.40;86.50;;;;;;5063697;28;20836;-45
2021/07/06 05:01:53;;;;;;;8.43;4.17;;;18.50;86.50;;;;;;5059156;28;20454;-45
2021/07/06 05:04:20;;;;;;;4.80;3.77;;;18.50;86.60;;;;;;5062163;28;20450;-45
2021/07/06 05:06:47;;;;;;;5.70;3.90;;;18.60;86.60;;;;;;5059143;28;20468;-46
2021/07/06 05:09:14;;;;;;;6.33;4.10;;;18.60;86.50;;;;;;5058285;28;20458;-46
2021/07/06 05:11:40;;;;;;;6.63;4.43;;;18.70;86.60;;;;;;5061851;28;20464;-46
2021/07/06 05:14:07;;;;;;;5.73;4.13;;;18.80;86.60;;;;;;5062389;28;20458;-45
2021/07/06 05:16:34;;;;;;;6.10;4.10;;;18.80;86.70;;;;;;5056919;28;20488;-45
2021/07/06 05:19:01;;;;;;;4.77;4.07;;;18.80;86.90;;;;;;5060710;28;20474;-46
2021/07/06 05:21:28;;;;;;;7.97;3.70;;;18.90;86.90;;;;;;5064124;28;20453;-46
2021/07/06 05:24:06;;;;;;;5.00;4.50;;;19.00;86.90;;;;;;5064382;28;20532;-46
2021/07/06 05:26:33;;;;;;;5.70;4.00;;;19.00;86.90;;;;;;5062640;28;20934;-46
2021/07/06 05:29:00;;;;;;;4.47;4.07;;;19.10;86.90;;;;;;5059767;28;20442;-46
2021/07/06 05:31:26;;;;;;;6.00;3.63;;;19.20;86.50;;;;;;5059274;28;20462;-46
2021/07/06 05:33:53;;;;;;;4.47;3.80;;;19.30;86.30;;;;;;5093349;28;20544;-46
2021/07/06 05:36:20;;;;;;;4.33;3.93;;;19.30;86.10;;;;;;5059238;28;20979;-46
2021/07/06 05:38:48;;;;;;;6.00;3.67;;;19.40;85.90;;;;;;5088502;28;20464;-46
2021/07/06 05:41:15;;;;;;;5.77;4.07;;;19.40;85.70;;;;;;5059856;28;20451;-46
2021/07/06 05:43:42;;;;;;;9.43;4.03;;;19.40;85.40;;;;;;5057032;28;20501;-46
2021/07/06 05:46:10;;;;;;;4.53;3.50;;;19.50;85.00;;;;;;5059088;28;20544;-46
2021/07/06 05:48:37;;;;;;;26.13;4.73;;;19.50;84.60;;;;;;5056066;28;20607;-46
2021/07/06 05:51:04;;;;;;;4.53;3.47;;;19.60;84.60;;;;;;5056727;28;20511;-46
2021/07/06 05:53:31;;;;;;;8.03;4.57;;;19.60;84.20;;;;;;5060738;28;20455;-46
2021/07/06 05:55:58;;;;;;;4.47;3.77;;;19.70;83.90;;;;;;5064794;28;20481;-46
2021/07/06 05:58:24;;;;;;;7.03;3.67;;;19.70;83.70;;;;;;5065039;28;20473;-46
2021/07/06 06:00:51;;;;;;;7.37;3.63;;;19.80;83.30;;;;;;5059597;28;20447;-46
2021/07/06 06:03:18;;;;;;;5.17;3.50;;;19.90;82.80;;;;;;5061601;28;20451;-46
2021/07/06 06:05:45;;;;;;;9.77;4.30;;;19.90;82.20;;;;;;5061526;28;20453;-46
2021/07/06 06:08:14;;;;;;;4.10;3.70;;;19.90;81.90;;;;;;5065851;28;20843;-46
2021/07/06 06:10:41;;;;;;;6.03;3.30;;;20.00;81.90;;;;;;5061933;28;20462;-46
2021/07/06 06:13:08;;;;;;;5.90;3.57;;;20.00;81.90;;;;;;5057943;28;20455;-46
2021/07/06 06:15:34;;;;;;;3.93;3.63;;;20.00;82.10;;;;;;5057194;28;20545;-46
2021/07/06 06:18:01;;;;;;;7.43;4.20;;;20.10;82.00;;;;;;5059411;28;21108;-46
2021/07/06 06:20:28;;;;;;;4.23;3.80;;;20.10;81.80;;;;;;5061609;28;20450;-46
2021/07/06 06:22:55;;;;;;;3.50;3.20;;;20.10;81.80;;;;;;5059935;28;20458;-46
2021/07/06 06:25:22;;;;;;;6.10;4.60;;;20.20;81.80;;;;;;5059353;28;20505;-46
2021/07/06 06:27:52;;;;;;;4.53;4.10;;;20.20;82.00;;;;;;5059872;28;20672;-46
2021/07/06 06:30:20;;;;;;;4.87;4.10;;;20.20;82.50;;;;;;5060293;28;20484;-46
2021/07/06 06:32:46;;;;;;;7.47;4.60;;;20.30;82.10;;;;;;5064088;28;20802;-45
2021/07/06 06:35:14;;;;;;;9.70;6.33;;;20.20;83.20;;;;;;5063170;28;20453;-45
2021/07/06 06:37:41;;;;;;;15.70;6.40;;;20.20;84.40;;;;;;5059475;28;20482;-45
2021/07/06 06:40:10;;;;;;;7.63;5.77;;;20.00;84.70;;;;;;5059959;28;20858;-45
2021/07/06 06:42:37;;;;;;;7.67;6.47;;;20.00;86.00;;;;;;5057749;28;20746;-45
2021/07/06 06:45:06;;;;;;;12.50;6.00;;;19.90;86.20;;;;;;5057297;28;20445;-45
2021/07/06 06:47:34;;;;;;;13.43;6.20;;;19.80;86.60;;;;;;5057900;28;20960;-45
2021/07/06 06:50:02;;;;;;;8.90;5.53;;;19.80;87.30;;;;;;5089411;28;20800;-45
2021/07/06 06:52:31;;;;;;;6.90;5.90;;;19.80;87.40;;;;;;5066636;28;20511;-45
2021/07/06 06:55:01;;;;;;;12.57;6.30;;;19.80;87.80;;;;;;5062921;28;20465;-45
2021/07/06 06:57:28;;;;;;;11.67;6.53;;;19.80;87.70;;;;;;5093806;28;20477;-45
2021/07/06 06:59:55;;;;;;;7.00;6.30;;;19.80;87.90;;;;;;5090341;28;20449;-46
2021/07/06 07:02:22;;;;;;;10.17;6.20;;;19.80;88.20;;;;;;5070006;28;20464;-46
2021/07/06 07:04:52;;;;;;;8.73;5.87;;;19.80;88.30;;;;;;5064488;28;20857;-46
2021/07/06 07:07:21;;;;;;;6.17;4.83;;;19.80;88.50;;;;;;5063208;28;20450;-46
2021/07/06 07:09:49;;;;;;;7.70;5.60;;;19.80;88.40;;;;;;5062721;28;20461;-46
2021/07/06 07:12:17;;;;;;;6.87;5.13;;;19.90;88.40;;;;;;5091600;28;20469;-46
2021/07/06 07:14:44;;;;;;;6.73;5.30;;;19.90;88.40;;;;;;5060998;28;20496;-45
2021/07/06 07:17:12;;;;;;;9.00;6.40;;;19.90;88.50;;;;;;5090953;28;20482;-46
2021/07/06 07:19:40;;;;;;;6.10;5.60;;;20.00;88.50;;;;;;5063016;28;21009;-45
2021/07/06 07:22:08;;;;;;;8.47;6.63;;;20.00;88.60;;;;;;5061927;28;20443;-45
2021/07/06 07:24:35;;;;;;;7.97;6.20;;;20.00;88.70;;;;;;5060138;28;20835;-45
2021/07/06 07:27:03;;;;;;;9.73;6.27;;;20.00;88.70;;;;;;5059139;28;20462;-45
2021/07/06 07:29:30;;;;;;;9.67;5.90;;;20.10;88.70;;;;;;5063456;28;20454;-45
2021/07/06 07:31:56;;;;;;;6.43;5.57;;;20.10;88.80;;;;;;5060524;28;20454;-45
2021/07/06 07:34:23;;;;;;;7.83;6.10;;;20.10;88.80;;;;;;5061156;28;20453;-45
2021/07/06 07:36:50;;;;;;;9.30;5.73;;;20.20;88.80;;;;;;5060881;28;20866;-45
2021/07/06 07:39:17;;;;;;;5.67;5.20;;;20.20;88.80;;;;;;5094338;28;20449;-45
2021/07/06 07:41:45;;;;;;;7.83;5.40;;;20.20;88.50;;;;;;5067426;28;20837;-45
2021/07/06 07:44:12;;;;;;;6.40;5.60;;;20.30;88.40;;;;;;5062967;28;20481;-45
2021/07/06 07:46:38;;;;;;;8.73;6.00;;;20.30;88.20;;;;;;5060938;28;20474;-45
2021/07/06 07:49:05;;;;;;;5.87;5.27;;;20.20;88.00;;;;;;5061037;28;20465;-46
2021/07/06 07:51:32;;;;;;;12.63;5.23;;;20.20;88.00;;;;;;5061386;28;20457;-46
2021/07/06 07:53:59;;;;;;;5.87;5.37;;;20.20;88.00;;;;;;5059817;28;20472;-46
2021/07/06 07:56:26;;;;;;;9.20;5.33;;;20.10;88.00;;;;;;5093951;28;20493;-46
2021/07/06 07:58:53;;;;;;;6.73;5.77;;;20.10;88.10;;;;;;5062284;28;20451;-46
2021/07/06 08:01:20;;;;;;;6.57;5.23;;;20.10;88.10;;;;;;5058910;28;20457;-46
2021/07/06 08:03:47;;;;;;;7.60;5.57;;;20.10;88.00;;;;;;5060764;28;20520;-46
2021/07/06 08:06:13;;;;;;;6.90;5.20;;;20.00;88.20;;;;;;5062906;28;20460;-46
2021/07/06 08:08:41;;;;;;;7.40;6.10;;;20.00;88.60;;;;;;5068076;28;20449;-46
2021/07/06 08:11:07;;;;;;;10.63;6.47;;;19.90;88.60;;;;;;5065654;28;20460;-45
2021/07/06 08:13:34;;;;;;;6.10;5.50;;;19.90;88.90;;;;;;5061309;28;20465;-45
2021/07/06 08:16:01;;;;;;;7.60;5.50;;;19.80;89.20;;;;;;5061271;28;20450;-45
2021/07/06 08:18:28;;;;;;;10.03;6.83;;;19.80;89.30;;;;;;5057156;28;20493;-45
2021/07/06 08:20:55;;;;;;;8.10;5.73;;;19.80;89.60;;;;;;5060788;28;20529;-45
2021/07/06 08:23:22;;;;;;;8.33;5.90;;;19.70;89.80;;;;;;5066514;28;20457;-45
2021/07/06 08:25:50;;;;;;;6.97;5.93;;;19.70;89.80;;;;;;5062139;28;20450;-45
2021/07/06 08:28:18;;;;;;;6.97;5.47;;;19.70;89.80;;;;;;5060955;28;20463;-45
2021/07/06 08:30:45;;;;;;;5.53;4.70;;;19.70;89.80;;;;;;5060604;28;20837;-45
2021/07/06 08:33:12;;;;;;;13.00;4.63;;;19.80;89.80;;;;;;5061611;28;20488;-45
2021/07/06 08:35:39;;;;;;;8.33;5.83;;;19.80;89.80;;;;;;5065722;28;20449;-45
2021/07/06 08:38:06;;;;;;;6.47;5.03;;;19.80;89.80;;;;;;5060872;28;20481;-45
2021/07/06 08:40:33;;;;;;;5.00;4.00;;;19.80;89.80;;;;;;5091991;27;20451;-45
2021/07/06 08:43:03;;;;;;;6.50;4.43;;;19.80;89.80;;;;;;5062204;28;20437;-45
2021/07/06 08:45:30;;;;;;;7.10;4.30;;;19.80;89.80;;;;;;5061782;28;20954;-45
2021/07/06 08:47:58;;;;;;;5.23;4.13;;;19.90;89.80;;;;;;5063836;28;20446;-46
2021/07/06 08:50:25;;;;;;;5.00;4.07;;;19.90;89.80;;;;;;5068000;28;20468;-46
2021/07/06 08:52:53;;;;;;;6.47;4.37;;;19.80;89.80;;;;;;5064766;28;20446;-46
2021/07/06 08:55:21;;;;;;;7.53;4.10;;;19.80;89.80;;;;;;5060679;28;20468;-46
2021/07/06 08:57:49;;;;;;;11.20;4.60;;;19.90;89.80;;;;;;5091290;28;20495;-46
2021/07/06 09:00:17;;;;;;;4.33;3.63;;;19.90;89.80;;;;;;5062310;28;20457;-46
2021/07/06 09:03:05;;;;;;;6.43;4.07;;;19.90;89.80;;;;;;5061046;28;20458;-45
2021/07/06 09:05:33;;;;;;;5.63;3.97;;;19.90;89.80;;;;;;5060330;28;20443;-45
2021/07/06 09:08:00;;;;;;;6.60;4.27;;;19.90;89.80;;;;;;5056966;28;20469;-45
2021/07/06 09:10:34;;;;;;;5.20;4.70;;;19.80;89.80;;;;;;5058414;28;20858;-45
2021/07/06 09:13:01;;;;;;;5.23;3.87;;;19.80;89.80;;;;;;5064444;28;20959;-45
2021/07/06 09:15:32;;;;;;;3.73;3.43;;;19.80;89.80;;;;;;5060964;28;20469;-45
2021/07/06 09:18:20;;;;;;;5.30;4.17;;;19.80;89.80;;;;;;5059322;28;20959;-45
2021/07/06 09:21:07;;;;;;;5.83;4.60;;;19.80;89.80;;;;;;5057512;28;20556;-45
2021/07/06 09:23:37;;;;;;;4.40;3.50;;;19.80;89.80;;;;;;5088382;28;20461;-45
2021/07/06 09:26:11;;;;;;;5.23;4.50;;;19.80;89.80;;;;;;5058721;28;20966;-45
2021/07/06 09:28:44;;;;;;;7.00;5.27;;;19.80;89.80;;;;;;5062233;28;20544;-45
2021/07/06 09:31:31;;;;;;;6.70;4.80;;;19.80;89.80;;;;;;5058792;28;20464;-46
2021/07/06 09:34:06;;;;;;;5.77;4.50;;;19.80;89.80;;;;;;5058726;28;21090;-46
2021/07/06 09:36:35;;;;;;;5.37;4.30;;;19.80;89.80;;;;;;5061698;28;20972;-46
2021/07/06 09:39:13;;;;;;;4.73;4.33;;;19.90;89.80;;;;;;5061570;28;20489;-46
2021/07/06 09:41:45;;;;;;;8.03;4.00;;;19.90;89.80;;;;;;5059515;28;20967;-46
2021/07/06 09:44:18;;;;;;;8.57;4.47;;;19.90;89.80;;;;;;5073631;28;20814;-46
2021/07/06 09:46:57;;;;;;;7.20;4.67;;;19.80;89.80;;;;;;5060839;28;20466;-46
2021/07/06 09:49:33;;;;;;;7.00;4.70;;;19.80;89.80;;;;;;5087035;28;20532;-46
2021/07/06 09:52:21;;;;;;;9.87;4.57;;;19.90;89.80;;;;;;5056703;28;21326;-46
2021/07/06 09:54:49;;;;;;;5.07;4.57;;;19.80;89.80;;;;;;5060956;28;20458;-46
2021/07/06 09:57:22;;;;;;;4.80;4.07;;;19.80;89.80;;;;;;5064418;28;20930;-46
2021/07/06 10:00:00;;;;;;;6.40;4.40;;;19.70;89.80;;;;;;5090448;27;20469;-45
2021/07/06 10:02:29;;;;;;;5.10;4.60;;;19.70;89.80;;;;;;5057426;28;20463;-45
2021/07/06 10:04:59;;;;;;;5.73;5.23;;;19.60;89.80;;;;;;5061705;28;20455;-45
2021/07/06 10:07:27;;;;;;;6.90;6.20;;;19.60;89.80;;;;;;5057971;28;20874;-46
2021/07/06 10:09:54;;;;;;;4.70;4.30;;;19.70;89.80;;;;;;5062153;28;20464;-45
2021/07/06 10:12:22;;;;;;;4.83;4.20;;;19.80;89.80;;;;;;5057756;28;20544;-45
2021/07/06 10:14:50;;;;;;;5.00;4.50;;;19.80;89.80;;;;;;5058329;28;20454;-45
2021/07/06 10:17:38;;;;;;;6.90;4.20;;;19.90;89.80;;;;;;5056253;28;20488;-45
2021/07/06 10:20:09;;;;;;;4.37;2.77;;;19.90;89.80;;;;;;5056364;28;20481;-45
2021/07/06 10:22:37;;;;;;;3.50;2.53;;;19.90;89.80;;;;;;5058880;28;20457;-45
2021/07/06 10:25:10;;;;;;;8.00;3.23;;;19.90;89.80;;;;;;5062743;28;20508;-45
2021/07/06 10:27:42;;;;;;;5.60;2.80;;;20.00;89.80;;;;;;5066322;28;20447;-45
2021/07/06 10:30:19;;;;;;;3.20;2.27;;;20.10;89.80;;;;;;5065001;28;20457;-45
2021/07/06 10:32:58;;;;;;;4.50;2.40;;;20.10;89.80;;;;;;5063002;28;20462;-45
2021/07/06 10:35:37;;;;;;;3.23;2.70;;;20.30;89.80;;;;;;5066808;28;20441;-45
2021/07/06 10:38:32;;;;;;;3.13;2.57;;;20.30;89.80;;;;;;5065409;28;20485;-45
2021/07/06 10:41:07;;;;;;;2.80;1.80;;;20.40;89.80;;;;;;5059723;28;20541;-45
2021/07/06 10:43:38;;;;;;;2.27;2.07;;;20.50;89.80;;;;;;5060217;28;20453;-45
2021/07/06 10:46:20;;;;;;;2.57;1.83;;;20.60;89.80;;;;;;5059652;28;20460;-45
2021/07/06 10:49:00;;;;;;;2.13;1.93;;;20.70;89.80;;;;;;5059721;28;20461;-45
2021/07/06 10:51:33;;;;;;;1.70;1.60;;;20.80;89.70;;;;;;5092791;28;20448;-45
2021/07/06 10:54:25;;;;;;;2.33;2.13;;;20.90;89.40;;;;;;5063376;28;20527;-45
2021/07/06 10:57:05;;;;;;;2.57;2.20;;;21.00;89.00;;;;;;5064094;28;20993;-45
2021/07/06 10:59:31;;;;;;;2.53;2.23;;;21.00;88.50;;;;;;5091885;28;20935;-45
2021/07/06 11:02:21;;;;;;;4.13;2.00;;;21.00;88.80;;;;;;5062794;28;20548;-45
2021/07/06 11:04:51;;;;;;;2.30;2.10;;;21.00;89.10;;;;;;5057945;28;20877;-45
2021/07/06 11:07:30;;;;;;;2.33;2.10;;;21.00;88.10;;;;;;5059196;28;20462;-45
2021/07/06 11:09:57;;;;;;;2.60;2.20;;;21.00;88.30;;;;;;5065929;28;20465;-45
2021/07/06 11:12:31;;;;;;;4.80;2.60;;;21.10;88.30;;;;;;5063417;28;20494;-45
2021/07/06 11:15:01;;;;;;;2.00;1.90;;;21.20;88.40;;;;;;5061321;28;20468;-45
2021/07/06 11:17:33;;;;;;;2.80;1.90;;;21.30;88.30;;;;;;5064854;28;20562;-45
2021/07/06 11:20:08;;;;;;;2.00;1.80;;;21.40;87.50;;;;;;5061814;28;20468;-45
2021/07/06 11:22:45;;;;;;;2.17;1.73;;;21.40;87.70;;;;;;5061622;28;20470;-45
2021/07/06 11:25:34;;;;;;;1.57;1.47;;;21.50;87.80;;;;;;5062990;28;20993;-45
2021/07/06 11:28:08;;;;;;;2.37;1.80;;;21.60;86.90;;;;;;5064042;28;20584;-45
2021/07/06 11:30:40;;;;;;;1.70;1.60;;;21.70;86.80;;;;;;5063862;28;20852;-45
2021/07/06 11:33:11;;;;;;;2.73;1.60;;;21.70;86.50;;;;;;5063277;28;20450;-45
2021/07/06 11:35:41;;;;;;;1.53;1.43;;;21.70;85.70;;;;;;5091088;28;21203;-45
2021/07/06 11:38:11;;;;;;;2.73;1.80;;;21.70;85.70;;;;;;5054125;28;20486;-46
2021/07/06 11:40:40;;;;;;;5.73;1.63;;;21.60;85.30;;;;;;5090244;28;20460;-46
2021/07/06 11:43:08;;;;;;;2.13;1.40;;;21.60;85.30;;;;;;5092099;28;20468;-46
2021/07/06 11:45:37;;;;;;;1.70;1.50;;;21.70;84.40;;;;;;5062592;28;20462;-46
2021/07/06 11:48:12;;;;;;;3.67;1.10;;;21.60;84.60;;;;;;5061168;28;20450;-45
2021/07/06 11:50:42;;;;;;;1.70;1.60;;;21.60;84.70;;;;;;5062594;28;20454;-45
2021/07/06 11:53:10;;;;;;;2.07;1.40;;;21.60;84.80;;;;;;5059862;28;20455;-45
2021/07/06 11:55:39;;;;;;;1.83;1.63;;;21.50;85.10;;;;;;5066607;28;20473;-45
2021/07/06 11:58:09;;;;;;;2.03;1.87;;;21.40;85.30;;;;;;5062544;28;20486;-45
2021/07/06 12:00:39;;;;;;;2.80;1.10;;;21.40;85.40;;;;;;5064552;28;20540;-45
2021/07/06 12:03:26;;;;;;;5.47;1.47;;;21.30;85.50;;;;;;5063492;28;20924;-45
2021/07/06 12:06:02;;;;;;;3.80;1.50;;;21.30;85.60;;;;;;5092127;28;20442;-45
2021/07/06 12:08:32;;;;;;;2.63;1.57;;;21.30;85.70;;;;;;5056935;28;20462;-45
2021/07/06 12:11:00;;;;;;;2.57;1.07;;;21.30;85.80;;;;;;5060147;28;20971;-45
2021/07/06 12:13:30;;;;;;;2.70;1.37;;;21.30;85.40;;;;;;5064362;28;20448;-45
2021/07/06 12:16:03;;;;;;;2.37;1.27;;;21.30;85.50;;;;;;5062141;28;20452;-45
2021/07/06 12:18:31;;;;;;;1.47;1.37;;;21.20;85.60;;;;;;5062244;28;20494;-45
2021/07/06 12:21:07;;;;;;;2.03;1.47;;;21.20;85.70;;;;;;5063449;28;20461;-45
2021/07/06 12:23:45;;;;;;;1.40;1.30;;;21.20;86.00;;;;;;5049695;28;20461;-45
2021/07/06 12:26:13;;;;;;;1.63;1.30;;;21.20;86.00;;;;;;5059263;28;20488;-45
2021/07/06 12:28:41;;;;;;;1.90;1.77;;;21.20;85.80;;;;;;5059483;28;20466;-45
2021/07/06 12:31:17;;;;;;;1.73;1.30;;;21.20;85.50;;;;;;5057663;28;20525;-45
2021/07/06 12:33:57;;;;;;;4.00;1.10;;;21.20;85.50;;;;;;5060899;28;20461;-45
2021/07/06 12:36:28;;;;;;;4.57;1.77;;;21.20;84.80;;;;;;5058820;28;20462;-45
2021/07/06 12:39:07;;;;;;;4.60;1.50;;;21.20;84.70;;;;;;5063125;28;20485;-45
2021/07/06 12:41:51;;;;;;;2.80;2.27;;;21.20;84.40;;;;;;5057231;28;20497;-45
2021/07/06 12:44:28;;;;;;;4.37;3.60;;;21.20;84.20;;;;;;5060700;28;20465;-45
2021/07/06 12:46:55;;;;;;;3.70;3.13;;;21.20;83.90;;;;;;5057725;28;20461;-45
2021/07/06 12:49:24;;;;;;;1.70;1.50;;;21.10;83.40;;;;;;5059694;28;20493;-45
2021/07/06 12:52:02;;;;;;;1.27;1.20;;;21.10;83.10;;;;;;5062932;28;20461;-45
2021/07/06 12:54:34;;;;;;;1.73;1.17;;;21.10;83.20;;;;;;5090568;27;20446;-45
2021/07/06 12:57:05;;;;;;;1.70;1.50;;;21.10;82.70;;;;;;5088562;28;20454;-45